sensor_id;sensor_type;location;lat;lon;timestamp;pressure;altitude;pressure_sealevel;temperature;humidity
17785;BME280;9016;53.582;10.062;2022-11-11T00:01:12;102513.19;;;14.21;72.11
17785;BME280;9016;53.582;10.062;2022-11-11T00:03:41;102511.06;;;14.29;72.96
17785;BME280;9016;53.582;10.062;2022-11-11T00:06:11;102512.19;;;14.23;72.17
17785;BME280;9016;53.582;10.062;2022-11-11T00:08:40;102513.06;;;14.24;72.52
17785;BME280;9016;53.582;10.062;2022-11-11T00:11:09;102519.50;;;14.20;72.18
17785;BME280;9016;53.582;10.062;2022-11-11T00:13:38;102514.88;;;14.23;72.81
17785;BME280;9016;53.582;10.062;2022-11-11T00:16:10;102502.38;;;14.22;72.68
17785;BME280;9016;53.582;10.062;2022-11-11T00:18:39;102500.75;;;14.20;73.10
17785;BME280;9016;53.582;10.062;2022-11-11T00:21:26;102506.66;;;14.08;73.23
17785;BME280;9016;53.582;10.062;2022-11-11T00:24:21;102503.69;;;13.95;74.30
17785;BME280;9016;53.582;10.062;2022-11-11T00:27:07;102501.25;;;14.09;74.12
17785;BME280;9016;53.582;10.062;2022-11-11T00:29:35;102511.66;;;14.15;73.68
17785;BME280;9016;53.582;10.062;2022-11-11T00:32:07;102513.88;;;14.26;73.43
17785;BME280;9016;53.582;10.062;2022-11-11T00:34:54;102516.09;;;14.16;73.30
17785;BME280;9016;53.582;10.062;2022-11-11T00:37:49;102503.94;;;14.28;73.55
17785;BME280;9016;53.582;10.062;2022-11-11T00:40:17;102502.03;;;14.11;73.66
17785;BME280;9016;53.582;10.062;2022-11-11T00:42:45;102497.34;;;14.16;73.52
17785;BME280;9016;53.582;10.062;2022-11-11T00:45:13;102493.34;;;14.06;74.24
17785;BME280;9016;53.582;10.062;2022-11-11T00:47:43;102488.50;;;14.14;73.74
17785;BME280;9016;53.582;10.062;2022-11-11T00:50:28;102490.56;;;14.08;74.24
17785;BME280;9016;53.582;10.062;2022-11-11T00:53:15;102488.22;;;14.20;73.93
17785;BME280;9016;53.582;10.062;2022-11-11T00:55:51;102494.00;;;14.30;73.75
17785;BME280;9016;53.582;10.062;2022-11-11T00:58:20;102497.19;;;14.19;73.51
17785;BME280;9016;53.582;10.062;2022-11-11T01:00:49;102509.06;;;14.14;74.24
17785;BME280;9016;53.582;10.062;2022-11-11T01:03:21;102501.91;;;14.14;74.61
17785;BME280;9016;53.582;10.062;2022-11-11T01:05:50;102500.44;;;14.07;74.35
17785;BME280;9016;53.582;10.062;2022-11-11T01:08:18;102504.50;;;14.16;74.70
17785;BME280;9016;53.582;10.062;2022-11-11T01:10:46;102505.69;;;14.29;73.82
17785;BME280;9016;53.582;10.062;2022-11-11T01:13:18;102505.63;;;14.30;73.42
17785;BME280;9016;53.582;10.062;2022-11-11T01:15:48;102504.75;;;14.30;73.91
17785;BME280;9016;53.582;10.062;2022-11-11T01:18:18;102509.59;;;14.22;74.53
17785;BME280;9016;53.582;10.062;2022-11-11T01:20:56;102522.31;;;14.17;74.95
17785;BME280;9016;53.582;10.062;2022-11-11T01:23:26;102517.31;;;14.29;74.15
17785;BME280;9016;53.582;10.062;2022-11-11T01:25:54;102528.06;;;14.28;74.71
17785;BME280;9016;53.582;10.062;2022-11-11T01:28:22;102533.31;;;14.31;74.33
17785;BME280;9016;53.582;10.062;2022-11-11T01:30:51;102525.34;;;14.29;74.77
17785;BME280;9016;53.582;10.062;2022-11-11T01:33:19;102511.94;;;14.29;74.59
17785;BME280;9016;53.582;10.062;2022-11-11T01:35:48;102511.94;;;14.29;74.30
17785;BME280;9016;53.582;10.062;2022-11-11T01:38:16;102516.03;;;14.18;75.05
17785;BME280;9016;53.582;10.062;2022-11-11T01:40:46;102503.13;;;14.26;74.81
17785;BME280;9016;53.582;10.062;2022-11-11T01:43:20;102506.41;;;14.32;74.63
17785;BME280;9016;53.582;10.062;2022-11-11T01:45:56;102503.53;;;14.37;74.57
17785;BME280;9016;53.582;10.062;2022-11-11T01:48:33;102502.00;;;14.31;74.78
17785;BME280;9016;53.582;10.062;2022-11-11T01:51:26;102506.56;;;14.29;74.96
17785;BME280;9016;53.582;10.062;2022-11-11T01:53:58;102495.50;;;14.17;75.27
17785;BME280;9016;53.582;10.062;2022-11-11T01:56:29;102493.22;;;14.09;75.46
17785;BME280;9016;53.582;10.062;2022-11-11T01:59:02;102493.78;;;14.16;75.91
17785;BME280;9016;53.582;10.062;2022-11-11T02:01:33;102491.19;;;14.14;75.42
17785;BME280;9016;53.582;10.062;2022-11-11T02:04:02;102485.38;;;14.23;75.08
17785;BME280;9016;53.582;10.062;2022-11-11T02:06:52;102490.00;;;14.20;75.09
17785;BME280;9016;53.582;10.062;2022-11-11T02:09:22;102482.97;;;14.17;75.53
17785;BME280;9016;53.582;10.062;2022-11-11T02:11:53;102490.09;;;14.18;75.74
17785;BME280;9016;53.582;10.062;2022-11-11T02:14:42;102477.84;;;14.13;75.82
17785;BME280;9016;53.582;10.062;2022-11-11T02:17:13;102476.81;;;14.15;75.99
17785;BME280;9016;53.582;10.062;2022-11-11T02:19:49;102473.41;;;14.12;75.70
17785;BME280;9016;53.582;10.062;2022-11-11T02:22:23;102476.53;;;14.21;75.58
17785;BME280;9016;53.582;10.062;2022-11-11T02:24:55;102474.13;;;14.15;75.86
17785;BME280;9016;53.582;10.062;2022-11-11T02:27:26;102473.66;;;14.07;75.72
17785;BME280;9016;53.582;10.062;2022-11-11T02:29:58;102483.25;;;14.11;75.79
17785;BME280;9016;53.582;10.062;2022-11-11T02:32:27;102484.28;;;14.09;75.80
17785;BME280;9016;53.582;10.062;2022-11-11T02:34:55;102472.25;;;13.99;76.15
17785;BME280;9016;53.582;10.062;2022-11-11T02:37:25;102472.41;;;13.96;76.18
17785;BME280;9016;53.582;10.062;2022-11-11T02:39:59;102455.31;;;13.98;76.52
17785;BME280;9016;53.582;10.062;2022-11-11T02:42:33;102461.97;;;13.89;76.27
17785;BME280;9016;53.582;10.062;2022-11-11T02:45:00;102462.75;;;13.91;76.38
17785;BME280;9016;53.582;10.062;2022-11-11T02:47:28;102462.31;;;13.82;76.25
17785;BME280;9016;53.582;10.062;2022-11-11T02:49:56;102470.34;;;13.82;76.59
17785;BME280;9016;53.582;10.062;2022-11-11T02:52:24;102468.81;;;13.76;76.78
17785;BME280;9016;53.582;10.062;2022-11-11T02:54:52;102473.69;;;13.68;76.64
17785;BME280;9016;53.582;10.062;2022-11-11T02:57:22;102485.56;;;13.63;77.24
17785;BME280;9016;53.582;10.062;2022-11-11T02:59:50;102483.44;;;13.69;76.75
17785;BME280;9016;53.582;10.062;2022-11-11T03:02:18;102499.78;;;13.63;77.18
17785;BME280;9016;53.582;10.062;2022-11-11T03:04:46;102502.81;;;13.76;76.85
17785;BME280;9016;53.582;10.062;2022-11-11T03:07:14;102510.84;;;13.76;76.76
17785;BME280;9016;53.582;10.062;2022-11-11T03:09:42;102511.91;;;13.72;76.75
17785;BME280;9016;53.582;10.062;2022-11-11T03:12:10;102509.97;;;13.75;76.83
17785;BME280;9016;53.582;10.062;2022-11-11T03:14:39;102524.25;;;13.76;76.42
17785;BME280;9016;53.582;10.062;2022-11-11T03:17:08;102515.38;;;13.94;76.03
17785;BME280;9016;53.582;10.062;2022-11-11T03:19:54;102519.19;;;13.88;76.21
17785;BME280;9016;53.582;10.062;2022-11-11T03:22:41;102517.25;;;13.92;76.60
17785;BME280;9016;53.582;10.062;2022-11-11T03:25:24;102517.16;;;13.93;75.71
17785;BME280;9016;53.582;10.062;2022-11-11T03:28:09;102516.28;;;13.93;76.09
17785;BME280;9016;53.582;10.062;2022-11-11T03:30:40;102512.59;;;13.96;75.44
17785;BME280;9016;53.582;10.062;2022-11-11T03:33:08;102507.44;;;13.91;75.26
17785;BME280;9016;53.582;10.062;2022-11-11T03:35:37;102519.28;;;13.87;75.94
17785;BME280;9016;53.582;10.062;2022-11-11T03:38:06;102521.34;;;13.80;75.85
17785;BME280;9016;53.582;10.062;2022-11-11T03:40:51;102522.22;;;13.81;76.08
17785;BME280;9016;53.582;10.062;2022-11-11T03:43:21;102514.09;;;13.82;75.72
17785;BME280;9016;53.582;10.062;2022-11-11T03:45:53;102529.63;;;13.94;75.87
17785;BME280;9016;53.582;10.062;2022-11-11T03:48:22;102527.09;;;13.91;75.37
17785;BME280;9016;53.582;10.062;2022-11-11T03:50:51;102518.72;;;13.79;76.16
17785;BME280;9016;53.582;10.062;2022-11-11T03:53:20;102535.88;;;13.75;76.26
17785;BME280;9016;53.582;10.062;2022-11-11T03:55:49;102533.06;;;13.58;76.15
17785;BME280;9016;53.582;10.062;2022-11-11T03:58:18;102536.06;;;13.52;76.63
17785;BME280;9016;53.582;10.062;2022-11-11T04:00:46;102540.53;;;13.51;76.91
17785;BME280;9016;53.582;10.062;2022-11-11T04:03:16;102542.31;;;13.51;76.49
17785;BME280;9016;53.582;10.062;2022-11-11T04:06:03;102540.13;;;13.60;76.75
17785;BME280;9016;53.582;10.062;2022-11-11T04:08:49;102547.53;;;13.54;77.09
17785;BME280;9016;53.582;10.062;2022-11-11T04:11:37;102538.69;;;13.32;77.39
17785;BME280;9016;53.582;10.062;2022-11-11T04:14:07;102536.72;;;13.37;77.91
17785;BME280;9016;53.582;10.062;2022-11-11T04:16:53;102532.56;;;13.30;78.07
17785;BME280;9016;53.582;10.062;2022-11-11T04:19:22;102540.53;;;13.31;77.81
17785;BME280;9016;53.582;10.062;2022-11-11T04:22:08;102537.91;;;13.30;78.14
17785;BME280;9016;53.582;10.062;2022-11-11T04:24:36;102542.97;;;13.36;78.18
17785;BME280;9016;53.582;10.062;2022-11-11T04:27:21;102543.19;;;13.31;78.49
17785;BME280;9016;53.582;10.062;2022-11-11T04:29:49;102552.50;;;13.43;77.67
17785;BME280;9016;53.582;10.062;2022-11-11T04:32:19;102556.66;;;13.50;77.28
17785;BME280;9016;53.582;10.062;2022-11-11T04:35:08;102552.13;;;13.52;76.28
17785;BME280;9016;53.582;10.062;2022-11-11T04:37:44;102546.47;;;13.58;76.81
17785;BME280;9016;53.582;10.062;2022-11-11T04:40:15;102558.31;;;13.52;76.85
17785;BME280;9016;53.582;10.062;2022-11-11T04:43:01;102555.88;;;13.48;76.85
17785;BME280;9016;53.582;10.062;2022-11-11T04:45:29;102561.34;;;13.45;77.09
17785;BME280;9016;53.582;10.062;2022-11-11T04:47:58;102552.16;;;13.50;77.38
17785;BME280;9016;53.582;10.062;2022-11-11T04:50:30;102552.16;;;13.50;76.15
17785;BME280;9016;53.582;10.062;2022-11-11T04:52:59;102546.34;;;13.41;76.70
17785;BME280;9016;53.582;10.062;2022-11-11T04:55:27;102558.38;;;13.31;76.91
17785;BME280;9016;53.582;10.062;2022-11-11T04:58:13;102558.78;;;13.22;77.61
17785;BME280;9016;53.582;10.062;2022-11-11T05:00:41;102552.03;;;13.33;77.74
17785;BME280;9016;53.582;10.062;2022-11-11T05:03:10;102551.31;;;13.30;76.95
17785;BME280;9016;53.582;10.062;2022-11-11T05:05:47;102551.81;;;13.18;77.78
17785;BME280;9016;53.582;10.062;2022-11-11T05:08:34;102544.59;;;13.20;77.78
17785;BME280;9016;53.582;10.062;2022-11-11T05:11:19;102550.31;;;13.11;78.54
17785;BME280;9016;53.582;10.062;2022-11-11T05:13:47;102551.56;;;13.24;78.28
17785;BME280;9016;53.582;10.062;2022-11-11T05:16:36;102547.81;;;13.28;78.21
17785;BME280;9016;53.582;10.062;2022-11-11T05:19:22;102537.25;;;13.03;77.95
17785;BME280;9016;53.582;10.062;2022-11-11T05:22:13;102542.75;;;12.98;78.01
17785;BME280;9016;53.582;10.062;2022-11-11T05:24:43;102534.88;;;12.95;78.50
17785;BME280;9016;53.582;10.062;2022-11-11T05:27:25;102529.38;;;12.98;78.92
17785;BME280;9016;53.582;10.062;2022-11-11T05:29:53;102536.38;;;13.03;78.34
17785;BME280;9016;53.582;10.062;2022-11-11T05:32:22;102531.59;;;13.11;78.59
17785;BME280;9016;53.582;10.062;2022-11-11T05:34:51;102547.34;;;12.97;78.04
17785;BME280;9016;53.582;10.062;2022-11-11T05:37:20;102552.19;;;12.87;79.65
17785;BME280;9016;53.582;10.062;2022-11-11T05:39:48;102549.59;;;12.85;79.18
17785;BME280;9016;53.582;10.062;2022-11-11T05:42:16;102556.03;;;13.02;78.49
17785;BME280;9016;53.582;10.062;2022-11-11T05:44:45;102547.97;;;13.03;78.81
17785;BME280;9016;53.582;10.062;2022-11-11T05:47:13;102557.72;;;13.04;78.62
17785;BME280;9016;53.582;10.062;2022-11-11T05:49:41;102548.91;;;13.01;78.18
17785;BME280;9016;53.582;10.062;2022-11-11T05:52:09;102553.03;;;12.87;78.72
17785;BME280;9016;53.582;10.062;2022-11-11T05:54:39;102551.56;;;12.80;79.48
17785;BME280;9016;53.582;10.062;2022-11-11T05:57:07;102556.34;;;12.94;79.27
17785;BME280;9016;53.582;10.062;2022-11-11T05:59:36;102552.94;;;12.90;78.66
17785;BME280;9016;53.582;10.062;2022-11-11T06:02:03;102557.78;;;13.03;78.72
17785;BME280;9016;53.582;10.062;2022-11-11T06:04:32;102567.06;;;12.94;79.35
17785;BME280;9016;53.582;10.062;2022-11-11T06:07:01;102567.53;;;12.82;79.35
17785;BME280;9016;53.582;10.062;2022-11-11T06:09:29;102565.66;;;12.84;80.56
17785;BME280;9016;53.582;10.062;2022-11-11T06:11:58;102570.03;;;12.86;80.65
17785;BME280;9016;53.582;10.062;2022-11-11T06:14:27;102575.69;;;12.79;80.41
17785;BME280;9016;53.582;10.062;2022-11-11T06:16:55;102574.84;;;13.00;80.08
17785;BME280;9016;53.582;10.062;2022-11-11T06:19:22;102574.34;;;12.90;79.76
17785;BME280;9016;53.582;10.062;2022-11-11T06:21:50;102579.94;;;12.84;80.41
17785;BME280;9016;53.582;10.062;2022-11-11T06:24:24;102579.13;;;12.82;80.48
17785;BME280;9016;53.582;10.062;2022-11-11T06:26:53;102595.47;;;12.75;81.01
17785;BME280;9016;53.582;10.062;2022-11-11T06:29:22;102595.97;;;12.84;81.14
17785;BME280;9016;53.582;10.062;2022-11-11T06:31:50;102586.53;;;12.98;80.78
17785;BME280;9016;53.582;10.062;2022-11-11T06:34:18;102587.72;;;12.90;80.83
17785;BME280;9016;53.582;10.062;2022-11-11T06:36:46;102601.91;;;12.92;80.53
17785;BME280;9016;53.582;10.062;2022-11-11T06:39:14;102601.53;;;12.80;81.73
17785;BME280;9016;53.582;10.062;2022-11-11T06:41:42;102608.31;;;12.88;81.67
17785;BME280;9016;53.582;10.062;2022-11-11T06:44:09;102612.47;;;12.95;81.15
17785;BME280;9016;53.582;10.062;2022-11-11T06:46:39;102610.47;;;13.01;81.74
17785;BME280;9016;53.582;10.062;2022-11-11T06:49:07;102623.84;;;13.01;81.03
17785;BME280;9016;53.582;10.062;2022-11-11T06:51:35;102619.81;;;12.90;82.11
17785;BME280;9016;53.582;10.062;2022-11-11T06:54:03;102627.47;;;13.00;81.49
17785;BME280;9016;53.582;10.062;2022-11-11T06:56:31;102631.97;;;12.99;81.43
17785;BME280;9016;53.582;10.062;2022-11-11T06:58:59;102631.53;;;13.10;80.63
17785;BME280;9016;53.582;10.062;2022-11-11T07:01:27;102641.66;;;13.03;80.88
17785;BME280;9016;53.582;10.062;2022-11-11T07:03:56;102653.25;;;13.02;81.29
17785;BME280;9016;53.582;10.062;2022-11-11T07:06:24;102639.06;;;13.00;81.72
17785;BME280;9016;53.582;10.062;2022-11-11T07:08:52;102644.00;;;12.87;82.47
17785;BME280;9016;53.582;10.062;2022-11-11T07:11:20;102644.78;;;12.91;82.15
17785;BME280;9016;53.582;10.062;2022-11-11T07:13:48;102647.41;;;12.92;81.82
17785;BME280;9016;53.582;10.062;2022-11-11T07:16:16;102644.06;;;12.86;82.47
17785;BME280;9016;53.582;10.062;2022-11-11T07:18:44;102654.31;;;12.75;82.98
17785;BME280;9016;53.582;10.062;2022-11-11T07:21:13;102644.81;;;12.68;84.29
17785;BME280;9016;53.582;10.062;2022-11-11T07:23:41;102645.56;;;12.71;83.72
17785;BME280;9016;53.582;10.062;2022-11-11T07:26:09;102648.13;;;12.74;83.88
17785;BME280;9016;53.582;10.062;2022-11-11T07:28:37;102651.56;;;12.78;84.04
17785;BME280;9016;53.582;10.062;2022-11-11T07:31:05;102655.88;;;12.80;84.46
17785;BME280;9016;53.582;10.062;2022-11-11T07:33:32;102650.53;;;12.80;83.64
17785;BME280;9016;53.582;10.062;2022-11-11T07:36:01;102647.75;;;12.83;83.72
17785;BME280;9016;53.582;10.062;2022-11-11T07:38:30;102666.31;;;12.88;83.97
17785;BME280;9016;53.582;10.062;2022-11-11T07:40:58;102661.41;;;12.99;83.30
17785;BME280;9016;53.582;10.062;2022-11-11T07:43:26;102667.63;;;12.76;84.64
17785;BME280;9016;53.582;10.062;2022-11-11T07:45:54;102668.91;;;12.89;84.06
17785;BME280;9016;53.582;10.062;2022-11-11T07:48:22;102663.16;;;13.00;83.86
17785;BME280;9016;53.582;10.062;2022-11-11T07:50:51;102671.41;;;12.94;83.24
17785;BME280;9016;53.582;10.062;2022-11-11T07:53:20;102677.94;;;12.87;84.36
17785;BME280;9016;53.582;10.062;2022-11-11T07:55:50;102665.19;;;12.93;84.72
17785;BME280;9016;53.582;10.062;2022-11-11T07:58:17;102673.59;;;13.08;83.50
17785;BME280;9016;53.582;10.062;2022-11-11T08:00:46;102673.16;;;13.18;82.89
17785;BME280;9016;53.582;10.062;2022-11-11T08:03:14;102674.03;;;13.19;82.54
17785;BME280;9016;53.582;10.062;2022-11-11T08:05:41;102680.16;;;13.21;83.13
17785;BME280;9016;53.582;10.062;2022-11-11T08:08:10;102685.78;;;13.15;83.02
17785;BME280;9016;53.582;10.062;2022-11-11T08:10:38;102695.69;;;13.13;84.13
17785;BME280;9016;53.582;10.062;2022-11-11T08:13:08;102688.47;;;13.15;83.49
17785;BME280;9016;53.582;10.062;2022-11-11T08:15:54;102682.75;;;13.24;83.92
17785;BME280;9016;53.582;10.062;2022-11-11T08:18:23;102692.63;;;13.22;82.98
17785;BME280;9016;53.582;10.062;2022-11-11T08:20:51;102690.50;;;13.08;84.41
17785;BME280;9016;53.582;10.062;2022-11-11T08:23:21;102709.31;;;13.07;84.50
17785;BME280;9016;53.582;10.062;2022-11-11T08:26:18;102689.75;;;13.05;84.88
17785;BME280;9016;53.582;10.062;2022-11-11T08:28:55;102694.81;;;13.12;84.63
17785;BME280;9016;53.582;10.062;2022-11-11T08:31:24;102701.56;;;13.22;84.34
17785;BME280;9016;53.582;10.062;2022-11-11T08:33:52;102704.41;;;13.18;84.16
17785;BME280;9016;53.582;10.062;2022-11-11T08:36:20;102708.59;;;13.02;85.65
17785;BME280;9016;53.582;10.062;2022-11-11T08:38:51;102723.97;;;13.20;85.07
17785;BME280;9016;53.582;10.062;2022-11-11T08:41:19;102723.78;;;13.24;84.65
17785;BME280;9016;53.582;10.062;2022-11-11T08:43:51;102724.84;;;13.20;84.08
17785;BME280;9016;53.582;10.062;2022-11-11T08:46:21;102729.25;;;13.21;84.73
17785;BME280;9016;53.582;10.062;2022-11-11T08:48:49;102726.78;;;13.15;84.57
17785;BME280;9016;53.582;10.062;2022-11-11T08:51:17;102718.06;;;13.33;84.11
17785;BME280;9016;53.582;10.062;2022-11-11T08:53:46;102726.13;;;13.32;83.38
17785;BME280;9016;53.582;10.062;2022-11-11T08:56:14;102723.41;;;13.33;83.72
17785;BME280;9016;53.582;10.062;2022-11-11T08:58:42;102725.38;;;13.28;83.85
17785;BME280;9016;53.582;10.062;2022-11-11T09:01:10;102720.00;;;13.07;84.94
17785;BME280;9016;53.582;10.062;2022-11-11T09:03:41;102736.72;;;13.13;85.45
17785;BME280;9016;53.582;10.062;2022-11-11T09:06:10;102733.72;;;13.21;84.98
17785;BME280;9016;53.582;10.062;2022-11-11T09:08:41;102737.34;;;13.20;84.84
17785;BME280;9016;53.582;10.062;2022-11-11T09:11:09;102741.59;;;13.25;84.15
17785;BME280;9016;53.582;10.062;2022-11-11T09:13:36;102748.31;;;13.35;83.84
17785;BME280;9016;53.582;10.062;2022-11-11T09:16:07;102751.53;;;13.22;84.23
17785;BME280;9016;53.582;10.062;2022-11-11T09:18:35;102742.41;;;13.27;84.49
17785;BME280;9016;53.582;10.062;2022-11-11T09:21:04;102760.50;;;13.21;84.64
17785;BME280;9016;53.582;10.062;2022-11-11T09:23:34;102770.81;;;13.31;84.43
17785;BME280;9016;53.582;10.062;2022-11-11T09:26:02;102761.75;;;13.34;84.13
17785;BME280;9016;53.582;10.062;2022-11-11T09:28:30;102751.31;;;13.28;84.00
17785;BME280;9016;53.582;10.062;2022-11-11T09:30:59;102760.97;;;13.09;85.85
17785;BME280;9016;53.582;10.062;2022-11-11T09:33:47;102766.63;;;13.24;84.92
17785;BME280;9016;53.582;10.062;2022-11-11T09:36:17;102761.19;;;13.26;84.37
17785;BME280;9016;53.582;10.062;2022-11-11T09:38:45;102766.16;;;13.13;85.59
17785;BME280;9016;53.582;10.062;2022-11-11T09:41:18;102766.91;;;13.17;85.24
17785;BME280;9016;53.582;10.062;2022-11-11T09:43:51;102768.78;;;13.15;85.41
17785;BME280;9016;53.582;10.062;2022-11-11T09:46:31;102765.69;;;13.02;85.93
17785;BME280;9016;53.582;10.062;2022-11-11T09:52:13;102768.19;;;13.30;85.06
17785;BME280;9016;53.582;10.062;2022-11-11T09:54:49;102774.00;;;13.41;84.25
17785;BME280;9016;53.582;10.062;2022-11-11T09:57:24;102775.50;;;13.48;83.14
17785;BME280;9016;53.582;10.062;2022-11-11T09:59:56;102774.22;;;13.35;84.78
17785;BME280;9016;53.582;10.062;2022-11-11T10:02:33;102773.03;;;13.42;83.68
17785;BME280;9016;53.582;10.062;2022-11-11T10:05:08;102774.59;;;13.26;84.30
17785;BME280;9016;53.582;10.062;2022-11-11T10:07:42;102788.00;;;13.47;84.79
17785;BME280;9016;53.582;10.062;2022-11-11T10:10:17;102782.13;;;13.59;83.36
17785;BME280;9016;53.582;10.062;2022-11-11T10:12:53;102787.69;;;13.55;82.74
17785;BME280;9016;53.582;10.062;2022-11-11T10:15:23;102785.03;;;13.55;82.66
17785;BME280;9016;53.582;10.062;2022-11-11T10:18:13;102785.09;;;13.75;82.54
17785;BME280;9016;53.582;10.062;2022-11-11T10:20:47;102787.69;;;13.98;81.65
17785;BME280;9016;53.582;10.062;2022-11-11T10:23:24;102780.41;;;14.02;81.12
17785;BME280;9016;53.582;10.062;2022-11-11T10:25:54;102788.91;;;14.11;79.99
17785;BME280;9016;53.582;10.062;2022-11-11T10:28:25;102779.69;;;13.97;78.74
17785;BME280;9016;53.582;10.062;2022-11-11T10:30:55;102788.94;;;13.89;79.57
17785;BME280;9016;53.582;10.062;2022-11-11T10:33:27;102794.63;;;14.04;78.62
17785;BME280;9016;53.582;10.062;2022-11-11T10:36:01;102796.09;;;13.89;78.90
17785;BME280;9016;53.582;10.062;2022-11-11T10:38:35;102800.41;;;13.93;78.31
17785;BME280;9016;53.582;10.062;2022-11-11T10:41:12;102804.69;;;13.97;77.58
17785;BME280;9016;53.582;10.062;2022-11-11T10:43:44;102792.22;;;13.76;78.47
17785;BME280;9016;53.582;10.062;2022-11-11T10:46:17;102796.47;;;13.80;77.78
17785;BME280;9016;53.582;10.062;2022-11-11T10:48:53;102795.94;;;13.72;78.29
17785;BME280;9016;53.582;10.062;2022-11-11T10:51:26;102792.94;;;13.79;78.08
17785;BME280;9016;53.582;10.062;2022-11-11T10:54:01;102799.06;;;13.83;76.79
17785;BME280;9016;53.582;10.062;2022-11-11T10:56:35;102792.38;;;13.71;77.15
17785;BME280;9016;53.582;10.062;2022-11-11T10:59:11;102798.19;;;13.61;77.87
17785;BME280;9016;53.582;10.062;2022-11-11T11:01:48;102798.31;;;13.79;77.15
17785;BME280;9016;53.582;10.062;2022-11-11T11:04:25;102795.66;;;13.78;77.92
17785;BME280;9016;53.582;10.062;2022-11-11T11:06:57;102793.56;;;13.86;76.93
17785;BME280;9016;53.582;10.062;2022-11-11T11:09:32;102793.31;;;13.92;76.57
17785;BME280;9016;53.582;10.062;2022-11-11T11:12:06;102794.72;;;14.01;76.01
17785;BME280;9016;53.582;10.062;2022-11-11T11:14:40;102795.22;;;13.67;75.99
17785;BME280;9016;53.582;10.062;2022-11-11T11:17:17;102787.84;;;13.73;77.03
17785;BME280;9016;53.582;10.062;2022-11-11T11:20:06;102791.63;;;13.68;76.85
17785;BME280;9016;53.582;10.062;2022-11-11T11:22:52;102793.78;;;13.80;76.52
17785;BME280;9016;53.582;10.062;2022-11-11T11:25:23;102798.34;;;13.78;76.98
17785;BME280;9016;53.582;10.062;2022-11-11T11:27:52;102787.94;;;13.92;76.20
17785;BME280;9016;53.582;10.062;2022-11-11T11:30:30;102798.75;;;13.90;76.47
17785;BME280;9016;53.582;10.062;2022-11-11T11:32:59;102791.38;;;13.96;76.19
17785;BME280;9016;53.582;10.062;2022-11-11T11:35:36;102792.28;;;13.94;75.74
17785;BME280;9016;53.582;10.062;2022-11-11T11:38:05;102795.34;;;14.07;75.15
17785;BME280;9016;53.582;10.062;2022-11-11T11:40:49;102800.31;;;13.94;75.18
17785;BME280;9016;53.582;10.062;2022-11-11T11:43:32;102804.47;;;14.03;76.13
17785;BME280;9016;53.582;10.062;2022-11-11T11:46:03;102802.03;;;13.97;75.68
17785;BME280;9016;53.582;10.062;2022-11-11T11:48:42;102799.72;;;13.88;75.86
17785;BME280;9016;53.582;10.062;2022-11-11T11:51:29;102801.34;;;13.92;76.05
17785;BME280;9016;53.582;10.062;2022-11-11T11:54:25;102804.94;;;13.91;75.83
17785;BME280;9016;53.582;10.062;2022-11-11T11:57:03;102807.75;;;13.88;76.53
17785;BME280;9016;53.582;10.062;2022-11-11T11:59:38;102801.84;;;13.80;76.27
17785;BME280;9016;53.582;10.062;2022-11-11T12:02:20;102797.13;;;13.86;76.18
17785;BME280;9016;53.582;10.062;2022-11-11T12:05:02;102793.56;;;13.86;76.46
17785;BME280;9016;53.582;10.062;2022-11-11T12:07:56;102797.66;;;13.94;75.36
17785;BME280;9016;53.582;10.062;2022-11-11T12:10:38;102791.31;;;13.97;76.47
17785;BME280;9016;53.582;10.062;2022-11-11T12:13:20;102790.81;;;14.09;76.05
17785;BME280;9016;53.582;10.062;2022-11-11T12:15:58;102794.16;;;14.14;75.18
17785;BME280;9016;53.582;10.062;2022-11-11T12:18:42;102799.25;;;14.20;74.33
17785;BME280;9016;53.582;10.062;2022-11-11T12:21:18;102793.66;;;14.05;75.37
17785;BME280;9016;53.582;10.062;2022-11-11T12:23:59;102802.69;;;14.02;75.36
17785;BME280;9016;53.582;10.062;2022-11-11T12:26:36;102802.31;;;14.11;74.98
17785;BME280;9016;53.582;10.062;2022-11-11T12:29:28;102807.13;;;14.03;76.21
17785;BME280;9016;53.582;10.062;2022-11-11T12:32:14;102805.34;;;14.04;75.09
17785;BME280;9016;53.582;10.062;2022-11-11T12:35:13;102811.53;;;14.04;74.55
17785;BME280;9016;53.582;10.062;2022-11-11T12:37:51;102805.22;;;13.85;75.64
17785;BME280;9016;53.582;10.062;2022-11-11T12:40:26;102807.44;;;13.96;76.05
17785;BME280;9016;53.582;10.062;2022-11-11T12:43:09;102812.19;;;14.11;75.84
17785;BME280;9016;53.582;10.062;2022-11-11T12:45:46;102814.84;;;13.89;75.07
17785;BME280;9016;53.582;10.062;2022-11-11T12:51:25;102810.19;;;13.94;75.42
17785;BME280;9016;53.582;10.062;2022-11-11T12:54:03;102810.19;;;13.94;75.47
17785;BME280;9016;53.582;10.062;2022-11-11T12:56:41;102811.28;;;13.68;75.49
17785;BME280;9016;53.582;10.062;2022-11-11T12:59:16;102803.91;;;13.73;75.83
17785;BME280;9016;53.582;10.062;2022-11-11T13:01:58;102803.91;;;13.73;76.05
17785;BME280;9016;53.582;10.062;2022-11-11T13:04:37;102811.41;;;13.87;75.23
17785;BME280;9016;53.582;10.062;2022-11-11T13:07:31;102809.44;;;13.69;75.61
17785;BME280;9016;53.582;10.062;2022-11-11T13:10:15;102813.75;;;13.73;76.07
17785;BME280;9016;53.582;10.062;2022-11-11T13:12:53;102806.44;;;13.76;75.89
17785;BME280;9016;53.582;10.062;2022-11-11T13:15:28;102809.31;;;13.93;74.84
17785;BME280;9016;53.582;10.062;2022-11-11T13:18:00;102810.00;;;13.99;75.35
17785;BME280;9016;53.582;10.062;2022-11-11T13:20:40;102814.47;;;14.20;75.01
17785;BME280;9016;53.582;10.062;2022-11-11T13:23:10;102820.50;;;14.25;74.98
17785;BME280;9016;53.582;10.062;2022-11-11T13:25:43;102827.53;;;14.29;73.99
17785;BME280;9016;53.582;10.062;2022-11-11T13:28:20;102833.03;;;14.24;73.61